Flight Track Log - Related Links

Times and Time Zones

All times are in EDT time to prevent confusion due to time zone crossing. See the CES2827 flight status page for this flight to view local times or setup timezone preferences in your user account.

Time Position Orientation Groundspeed Altitude Reporting Facility
EDT Latitude Longitude Course Direction KTS MPH feet Rate Location/Type
Thu 05:53:00 AM 33.7167 119.3498 12° North  Level Estimated
Thu 05:54:00 AM 33.8154 119.3748 12° North  Level Estimated
Thu 05:55:00 AM 33.9141 119.3998 12° North  Level Estimated
Thu 05:56:00 AM 34.0127 119.4249 12° North  Level Estimated
Thu 05:57:00 AM 34.1114 119.4501 12° North  Level Estimated
Thu 05:58:00 AM 34.2101 119.4753 12° North  Level Estimated
Thu 05:59:00 AM 34.3087 119.5005 12° North  Level Estimated
Thu 06:00:00 AM 34.4074 119.5258 12° North  Level Estimated
Thu 06:01:00 AM 34.5060 119.5512 12° North  Level Estimated
Thu 06:02:00 AM 34.6047 119.5767 12° North  Level Estimated
Thu 06:03:00 AM 34.7033 119.6022 12° North  Level Estimated
Thu 06:04:00 AM 34.8019 119.6277 12° North  Level Estimated
Thu 06:05:00 AM 34.9006 119.6534 12° North  Level Estimated
Thu 06:06:00 AM 34.9992 119.6790 12° North  Level Estimated
Thu 06:07:00 AM 35.0978 119.7048 12° North  Level Estimated
Thu 06:08:00 AM 35.1964 119.7306 12° North  Level Estimated
Thu 06:09:00 AM 35.2950 119.7565 12° North  Level Estimated
Thu 06:10:00 AM 35.3936 119.7824 12° North  Level Estimated
Thu 06:11:00 AM 35.4922 119.8084 12° North  Level Estimated
Thu 06:12:00 AM 35.5908 119.8345 12° North  Level Estimated
Thu 06:13:00 AM 35.6894 119.8606 12° North  Level Estimated
Thu 06:14:00 AM 35.7879 119.8868 12° North  Level Estimated
Thu 06:15:00 AM 35.8865 119.9130 12° North  Level Estimated
Thu 06:16:00 AM 35.9851 119.9394 12° North  Level Estimated
Thu 06:17:00 AM 36.0836 119.9658 12° North  Level Estimated
Thu 06:18:00 AM 36.1822 119.9922 12° North  Level Estimated
Thu 06:19:00 AM 36.2808 120.0187 12° North  Level Estimated
Thu 06:20:00 AM 36.3793 120.0453 12° North  Level Estimated
Thu 06:21:00 AM 36.4778 120.0720 12° North  Level Estimated
Thu 06:22:00 AM 36.5764 120.0987 12° North  Level Estimated
Thu 06:23:00 AM 36.6749 120.1255 12° North  Level Estimated
Thu 06:24:00 AM 36.7734 120.1524 12° North  Level Estimated
Thu 06:25:00 AM 36.8719 120.1793 12° North  Level Estimated
Thu 06:26:00 AM 36.9704 120.2063 12° North  Level Estimated
Thu 06:27:00 AM 37.0689 120.2334 12° North  Level Estimated
Thu 06:28:00 AM 37.1674 120.2605 12° North  Level Estimated
Thu 06:29:00 AM 37.2659 120.2877 12° North  Level Estimated
Thu 06:30:00 AM 37.3644 120.3150 12° North  Level Estimated
Thu 06:31:00 AM 37.4628 120.3423 12° North  Level Estimated
Thu 06:32:00 AM 37.5613 120.3698 12° North  Level Estimated
Thu 06:33:00 AM 37.6598 120.3973 12° North  Level Estimated
Thu 06:34:00 AM 37.7582 120.4248 12° North  Level Estimated
Thu 06:35:00 AM 37.8567 120.4525 13° North  Level Estimated
Thu 06:36:00 AM 37.9551 120.4802 13° North  Level Estimated
Thu 06:37:00 AM 38.0536 120.5080 13° North  Level Estimated
Thu 06:38:00 AM 38.1520 120.5359 13° North  Level Estimated
Thu 06:39:00 AM 38.2504 120.5638 13° North  Level Estimated
Thu 06:40:00 AM 38.3488 120.5918 13° North  Level Estimated
Thu 06:41:00 AM 38.4472 120.6199 13° North  Level Estimated
Thu 06:42:00 AM 38.5456 120.6481 13° North  Level Estimated
Thu 06:43:00 AM 38.6440 120.6763 13° North  Level Estimated
Thu 06:44:00 AM 38.7424 120.7047 13° North  Level Estimated
Thu 06:45:00 AM 38.8408 120.7331 13° North  Level Estimated
Thu 06:46:00 AM 38.9392 120.7616 13° North  Level Estimated
Thu 06:47:00 AM 39.0375 120.7901 13° North  Level Estimated
Thu 06:48:00 AM 39.1359 120.8188 13° North  Level Estimated
Thu 06:49:00 AM 39.2342 120.8475 13° North  Level Estimated
Thu 06:50:00 AM 39.3326 120.8763 13° North  Level Estimated
Thu 06:51:00 AM 39.4309 120.9052 13° North  Level Estimated
Thu 06:52:00 AM 39.5293 120.9341 13° North  Level Estimated
Thu 06:53:00 AM 39.6276 120.9632 13° North  Level Estimated
Thu 06:54:00 AM 39.7259 120.9923 13° North  Level Estimated
Thu 06:55:00 AM 39.8242 121.0215 13° North  Level Estimated
Thu 06:56:00 AM 39.9225 121.0508 13° North  Level Estimated
Thu 06:57:00 AM 40.0208 121.0802 13° North  Level Estimated
Thu 06:58:00 AM 40.1191 121.1097 13° North  Level Estimated
Thu 06:59:00 AM 40.2174 121.1392 13° North  Level Estimated
Thu 07:00:00 AM 40.3157 121.1689 13° North  Level Estimated
Thu 07:01:00 AM 40.4139 121.1986 13° North  Level Estimated
Thu 07:02:00 AM 40.5122 121.2284 13° North  Level Estimated
Thu 07:03:00 AM 40.6105 121.2583 13° North  Level Estimated
Thu 07:04:00 AM 40.7087 121.2883 13° North  Level Estimated
Thu 07:05:00 AM 40.8069 121.3184 13° North  Level Estimated
Thu 07:06:00 AM 40.9052 121.3485 13° North  Level Estimated
Thu 07:07:00 AM 41.0034 121.3788 13° North  Level Estimated
Thu 07:08:00 AM 41.1016 121.4091 13° North  Level Estimated
Thu 07:09:00 AM 41.1998 121.4396 13° North  Level Estimated
Thu 07:10:00 AM 41.2980 121.4701 13° North  Level Estimated
Thu 07:11:00 AM 41.3962 121.5007 13° North  Level Estimated
Thu 07:12:00 AM 41.4944 121.5314 13° North  Level Estimated
Thu 07:13:00 AM 41.5925 121.5622 13° North  Level Estimated
Thu 07:14:00 AM 41.6907 121.5931 13° North  Level Estimated
Thu 07:15:00 AM 41.7888 121.6241 13° North  Level Estimated
Thu 07:16:00 AM 41.8870 121.6552 13° North  Level Estimated
Thu 07:17:00 AM 41.9851 121.6864 13° North  Level Estimated
Thu 07:18:00 AM 42.0832 121.7177 13° North  Level Estimated
Thu 07:19:00 AM 42.1814 121.7491 13° North  Level Estimated
Thu 07:20:00 AM 42.2795 121.7805 13° North  Level Estimated
Thu 07:21:00 AM 42.3776 121.8121 13° North  Level Estimated
Thu 07:22:00 AM 42.4757 121.8438 13° North  Level Estimated
Thu 07:23:00 AM 42.5738 121.8755 13° North  Level Estimated
Thu 07:24:00 AM 42.6718 121.9074 13° North  Level Estimated
Thu 07:25:00 AM 42.7699 121.9394 13° North  Level Estimated
Thu 07:26:00 AM 42.8680 121.9715 13° North  Level Estimated
Thu 07:27:00 AM 42.9660 122.0036 14° North  Level Estimated
Thu 07:28:00 AM 43.0641 122.0359 14° North  Level Estimated
Thu 07:29:00 AM 43.1621 122.0683 14° North  Level Estimated
Thu 07:30:00 AM 43.2601 122.1008 14° North  Level Estimated
Thu 07:31:00 AM 43.3581 122.1334 14° North  Level Estimated
Thu 07:32:00 AM 43.4561 122.1661 14° North  Level Estimated
Thu 07:33:00 AM 43.5541 122.1989 14° North  Level Estimated
Thu 07:34:00 AM 43.5567 122.1997 14° North  Level Estimated
Thu 07:35:00 AM 43.5567 122.1997 North  Level Estimated
Thu 07:36:00 AM 43.5567 122.1997 North  Level Estimated
Thu 07:37:00 AM 43.5567 122.1997 North  Level Estimated
Thu 07:38:00 AM 43.5567 122.1997 North  Level Estimated
Thu 07:39:00 AM 43.5567 122.1997 North  Level Estimated
Thu 07:40:00 AM 43.5567 122.1997 North  Level Estimated
Thu 07:41:00 AM 43.5567 122.1997 North  Level Estimated
Thu 07:42:00 AM 43.5567 122.1997 North  Level Estimated
Thu 07:43:00 AM 43.5567 122.1997 North  Level Estimated
Thu 07:44:00 AM 43.5567 122.1997 North  Level Estimated
Thu 07:45:00 AM 43.5567 122.1997 North  Level Estimated
Thu 07:46:00 AM 43.5567 122.1997 North  Level Estimated
Thu 07:47:00 AM 43.5567 122.1997 North  Level Estimated
Thu 07:48:00 AM 43.5567 122.1997 North  Level Estimated
Thu 07:49:00 AM 43.5567 122.1997 North  Level Estimated
Thu 07:50:00 AM 43.5567 122.1997 North  Level Estimated

Login

Don't have an account? Register now (free) for customized features, flight alerts, and more!